Terminal Aerodrome Forecast
Issued by NWS Grand Junction, CO

Home | Current Version | Previous Version | Text Only | Print | Product List | Glossary On
Versions: 1 2 3 4 5 6 7 8 9 10 11 12 13 14 15 16 17 18 19 20 21 22 23 24 25
000
FTUS45 KGJT 211739
TAFGJT
TAF
KGJT 211739Z 2118/2218 VRB03KT P6SM BKN200
     FM220000 06007KT P6SM BKN200
     FM220200 07012KT P6SM BKN200 WS020/21035KT
     FM220600 04012KT P6SM BKN150 WS020/23030KT
     FM220900 25007KT P6SM VCSH SCT200
     FM221300 20005KT P6SM SCT100=

USA.gov is the U.S. government's official web portal to all federal, state and local government web resources and services.